Time;durP1;ratioP1;P1;durP2;ratioP2;P2;SDS_P1;SDS_P2;PMS_P1;PMS_P2;Temp;Humidity;BMP_temperature;BMP_pressure;BME280_temperature;BME280_humidity;BME280_pressure;Samples;Min_cycle;Max_cycle;Signal;HPM_P1;HPM_P2
2021/08/24 00:00:58;;;;;;;7.17;5.32;;;;;;;;;;356447;151;858066;-57
2021/08/24 00:01:59;;;;;;;7.21;4.86;;;;;;;;;;354164;149;858203;-57
2021/08/24 00:03:01;;;;;;;9.38;5.22;;;;;;;;;;352983;151;858759;-58
2021/08/24 00:04:03;;;;;;;9.27;5.37;;;;;;;;;;353934;149;858870;-57
2021/08/24 00:05:05;;;;;;;11.74;5.46;;;;;;;;;;354322;151;857184;-57
2021/08/24 00:06:07;;;;;;;9.36;5.11;;;;;;;;;;355086;150;866651;-57
2021/08/24 00:07:09;;;;;;;9.19;5.22;;;;;;;;;;353340;151;859461;-57
2021/08/24 00:08:10;;;;;;;8.18;5.05;;;;;;;;;;350152;149;865083;-59
2021/08/24 00:09:12;;;;;;;5.93;4.82;;;;;;;;;;353227;149;857508;-58
2021/08/24 00:10:14;;;;;;;8.67;5.02;;;;;;;;;;354259;150;857367;-57
2021/08/24 00:11:16;;;;;;;8.24;5.07;;;;;;;;;;354647;151;857358;-57
2021/08/24 00:12:17;;;;;;;7.07;5.04;;;;;;;;;;355000;149;866722;-57
2021/08/24 00:13:19;;;;;;;6.96;4.79;;;;;;;;;;352045;150;858333;-57
2021/08/24 00:14:21;;;;;;;9.95;5.20;;;;;;;;;;356046;149;858740;-57
2021/08/24 00:15:23;;;;;;;9.84;5.36;;;;;;;;;;356405;149;857534;-57
2021/08/24 00:16:25;;;;;;;7.03;5.37;;;;;;;;;;353007;148;866239;-57
2021/08/24 00:17:26;;;;;;;9.68;5.01;;;;;;;;;;355314;150;857175;-57
2021/08/24 00:18:28;;;;;;;8.00;4.95;;;;;;;;;;355185;151;857230;-57
2021/08/24 00:19:29;;;;;;;8.28;5.15;;;;;;;;;;353589;149;857949;-57
2021/08/24 00:20:31;;;;;;;9.59;5.21;;;;;;;;;;352599;148;858255;-58
2021/08/24 00:21:33;;;;;;;11.21;4.79;;;;;;;;;;351204;151;857331;-58
2021/08/24 00:22:35;;;;;;;12.12;5.59;;;;;;;;;;350808;151;865107;-57
2021/08/24 00:23:37;;;;;;;8.85;5.11;;;;;;;;;;348991;148;857152;-58
2021/08/24 00:24:39;;;;;;;8.83;4.51;;;;;;;;;;350143;152;857318;-57
2021/08/24 00:25:40;;;;;;;10.26;4.99;;;;;;;;;;353353;152;864877;-57
2021/08/24 00:26:43;;;;;;;8.74;5.12;;;;;;;;;;350871;150;857381;-57
2021/08/24 00:27:45;;;;;;;6.32;4.94;;;;;;;;;;352605;150;857145;-57
2021/08/24 00:28:46;;;;;;;9.66;5.15;;;;;;;;;;354286;152;857183;-57
2021/08/24 00:29:48;;;;;;;8.61;5.56;;;;;;;;;;351382;148;858720;-57
2021/08/24 00:30:50;;;;;;;8.48;4.95;;;;;;;;;;352029;148;858803;-57
2021/08/24 00:31:53;;;;;;;11.70;5.75;;;;;;;;;;353061;152;865877;-58
2021/08/24 00:32:54;;;;;;;10.52;5.02;;;;;;;;;;348225;154;858237;-57
2021/08/24 00:33:56;;;;;;;9.49;5.40;;;;;;;;;;349762;148;859020;-57
2021/08/24 00:34:57;;;;;;;10.00;5.40;;;;;;;;;;343444;154;857253;-57
2021/08/24 00:36:00;;;;;;;13.44;5.23;;;;;;;;;;341603;155;857270;-57
2021/08/24 00:37:02;;;;;;;7.68;5.60;;;;;;;;;;344144;155;857292;-56
2021/08/24 02:44:19;;;;;;;10.21;6.12;;;;;;;14.49;77.38;100046.73;370977;142;881360;-57
2021/08/24 02:45:36;;;;;;;9.97;4.94;;;;;;;14.38;77.47;100046.95;365008;145;857437;-58
2021/08/24 02:46:41;;;;;;;6.25;4.29;;;;;;;14.35;77.47;100048.78;365876;147;857154;-58
2021/08/24 02:47:43;;;;;;;11.04;3.91;;;;;;;14.34;77.44;100047.07;361752;146;859636;-57
2021/08/24 02:48:47;;;;;;;6.04;4.04;;;;;;;14.37;77.47;100047.84;364275;145;857782;-56
2021/08/24 02:49:49;;;;;;;7.96;4.04;;;;;;;14.45;77.34;100045.08;367591;146;865063;-57
2021/08/24 02:50:51;;;;;;;6.51;4.38;;;;;;;14.56;76.73;100042.22;359794;147;857995;-57
2021/08/24 02:51:53;;;;;;;6.54;4.29;;;;;;;14.67;76.34;100049.80;353691;150;865787;-56
2021/08/24 02:52:55;;;;;;;6.59;3.81;;;;;;;14.81;75.95;100047.75;351398;150;866528;-56
2021/08/24 02:54:15;;;;;;;7.19;4.10;;;;;;;14.97;75.46;100043.04;354251;150;858922;-57
2021/08/24 02:55:17;;;;;;;;;;;;;;;15.19;75.00;100045.11;362606;146;864321;-57
2021/08/24 02:56:19;;;;;;;6.42;3.96;;;;;;;15.46;73.60;100046.15;359851;149;857361;-57
2021/08/24 02:57:20;;;;;;;6.86;3.89;;;;;;;;;;359046;149;864950;-57
2021/08/24 02:58:24;;;;;;;6.41;4.12;;;;;;;;;;357653;149;865027;-56
2021/08/24 02:59:25;;;;;;;7.20;4.27;;;;;;;;;;355862;147;859438;-56
2021/08/24 03:00:28;;;;;;;9.95;4.19;;;;;;;;;;359329;149;864872;-56
2021/08/24 03:01:29;;;;;;;8.41;4.27;;;;;;;;;;359029;149;857427;-58
2021/08/24 03:02:31;;;;;;;7.81;4.64;;;;;;;;;;359121;148;857237;-58
2021/08/24 03:03:32;;;;;;;7.74;4.27;;;;;;;;;;353605;149;865397;-57
2021/08/24 03:04:34;;;;;;;7.30;4.63;;;;;;;;;;359647;148;860019;-56
2021/08/24 03:05:36;;;;;;;9.35;4.77;;;;;;;;;;359208;148;857399;-57
2021/08/24 03:06:40;;;;;;;8.99;4.81;;;;;;;;;;359465;147;859242;-57
2021/08/24 03:07:42;;;;;;;7.54;5.07;;;;;;;;;;358128;150;864895;-57
2021/08/24 03:08:44;;;;;;;9.78;5.14;;;;;;;;;;358940;147;857248;-57
2021/08/24 03:09:45;;;;;;;8.05;5.59;;;;;;;;;;353122;150;857366;-57
2021/08/24 03:10:49;;;;;;;9.58;5.16;;;;;;;;;;354011;149;857336;-58
2021/08/24 03:11:58;;;;;;;10.53;5.54;;;;;;;;;;360947;148;859039;-56
2021/08/24 03:13:20;;;;;;;8.83;5.49;;;;;;;;;;360249;148;864949;-57
2021/08/24 03:14:23;;;;;;;9.22;6.51;;;;;;;;;;360045;149;856444;-57
2021/08/24 03:15:26;;;;;;;7.78;5.43;;;;;;;;;;359837;149;858448;-56
2021/08/24 03:16:30;;;;;;;7.92;5.65;;;;;;;;;;358424;147;859202;-57
2021/08/24 03:17:33;;;;;;;7.06;5.54;;;;;;;;;;358990;149;858743;-57
2021/08/24 03:18:40;;;;;;;8.91;5.59;;;;;;;;;;357714;149;858313;-58
2021/08/24 03:19:42;;;;;;;7.42;5.01;;;;;;;;;;357328;148;857293;-58
2021/08/24 03:20:45;;;;;;;9.96;5.28;;;;;;;;;;359253;147;858757;-59
2021/08/24 03:21:46;;;;;;;9.35;5.29;;;;;;;;;;361014;148;857276;-58
2021/08/24 03:22:48;;;;;;;11.23;5.75;;;;;;;;;;359785;148;857327;-58
2021/08/24 03:23:50;;;;;;;11.83;5.77;;;;;;;;;;357836;147;857304;-58
2021/08/24 03:24:51;;;;;;;8.82;5.92;;;;;;;;;;357740;149;857311;-57
2021/08/24 03:25:53;;;;;;;10.81;5.40;;;;;;;;;;357639;148;866004;-58
2021/08/24 03:26:55;;;;;;;8.20;5.39;;;;;;;;;;358298;147;858155;-57
2021/08/24 03:27:56;;;;;;;12.19;6.12;;;;;;;;;;357009;149;865135;-58
2021/08/24 03:28:58;;;;;;;14.17;5.78;;;;;;;;;;359351;150;857897;-56
2021/08/24 03:30:00;;;;;;;9.59;5.89;;;;;;;;;;360845;147;860605;-58
2021/08/24 03:31:02;;;;;;;8.90;5.95;;;;;;;;;;358804;147;857413;-57
2021/08/24 03:32:04;;;;;;;9.83;5.49;;;;;;;;;;358941;149;857253;-58
2021/08/24 03:33:06;;;;;;;10.75;5.89;;;;;;;;;;358790;148;858160;-57
2021/08/24 03:34:07;;;;;;;9.12;5.70;;;;;;;;;;359756;148;859049;-57
2021/08/24 03:35:09;;;;;;;8.24;5.48;;;;;;;;;;358905;147;865060;-57
2021/08/24 03:36:13;;;;;;;8.44;5.24;;;;;;;;;;359164;150;866161;-57
2021/08/24 03:37:14;;;;;;;12.33;6.04;;;;;;;;;;360344;147;866753;-57
2021/08/24 03:38:16;;;;;;;8.81;5.75;;;;;;;;;;358240;147;865106;-58
2021/08/24 03:39:17;;;;;;;10.51;5.61;;;;;;;;;;357573;149;857942;-58
2021/08/24 03:40:20;;;;;;;10.83;5.68;;;;;;;;;;357357;147;859104;-58
2021/08/24 03:41:22;;;;;;;10.37;5.46;;;;;;;;;;358350;147;857399;-59
2021/08/24 03:42:23;;;;;;;6.69;5.26;;;;;;;;;;357605;148;858945;-61
2021/08/24 03:43:25;;;;;;;10.46;5.61;;;;;;;;;;358624;149;858551;-57
2021/08/24 03:44:27;;;;;;;11.47;5.71;;;;;;;;;;358496;148;858759;-58
2021/08/24 03:45:28;;;;;;;8.05;5.66;;;;;;;;;;358163;148;859185;-59
2021/08/24 03:46:31;;;;;;;10.43;5.42;;;;;;;;;;358442;149;857786;-57
2021/08/24 03:47:33;;;;;;;15.10;5.91;;;;;;;;;;358269;150;857425;-59
2021/08/24 03:48:35;;;;;;;9.88;5.19;;;;;;;;;;359366;147;865715;-56
2021/08/24 03:49:37;;;;;;;9.51;5.57;;;;;;;;;;357798;149;858394;-55
2021/08/24 03:50:40;;;;;;;10.28;5.84;;;;;;;;;;358709;150;860417;-55
2021/08/24 03:51:42;;;;;;;9.83;6.07;;;;;;;;;;358844;148;857431;-55
2021/08/24 03:52:43;;;;;;;10.02;5.47;;;;;;;;;;359641;148;859674;-56
2021/08/24 03:53:45;;;;;;;7.08;5.44;;;;;;;;;;352267;150;865116;-57
2021/08/24 03:54:47;;;;;;;13.37;6.06;;;;;;;;;;356450;149;857387;-56
2021/08/24 03:55:48;;;;;;;10.05;5.58;;;;;;;;;;358359;148;864899;-57
2021/08/24 03:56:50;;;;;;;8.30;5.67;;;;;;;;;;359172;150;857883;-57
2021/08/24 03:57:52;;;;;;;11.39;6.33;;;;;;;;;;358639;148;857210;-58
2021/08/24 03:58:53;;;;;;;7.52;5.30;;;;;;;;;;358371;148;857143;-61
2021/08/24 03:59:55;;;;;;;8.31;5.52;;;;;;;;;;359073;148;857236;-58
2021/08/24 04:00:58;;;;;;;9.11;5.94;;;;;;;;;;358112;148;858835;-60
2021/08/24 04:02:00;;;;;;;10.63;6.57;;;;;;;;;;356953;148;859108;-58
2021/08/24 04:03:02;;;;;;;10.33;6.04;;;;;;;;;;356407;148;859167;-57
2021/08/24 04:04:04;;;;;;;8.44;5.59;;;;;;;;;;356724;149;860319;-59
2021/08/24 04:05:06;;;;;;;8.68;5.46;;;;;;;;;;356414;148;864809;-58
2021/08/24 04:06:08;;;;;;;10.13;6.09;;;;;;;;;;357252;148;857851;-59
2021/08/24 04:07:09;;;;;;;9.99;5.87;;;;;;;;;;358618;149;864919;-60
2021/08/24 04:08:11;;;;;;;9.15;5.76;;;;;;;;;;357188;150;857706;-60
2021/08/24 04:09:13;;;;;;;6.71;5.26;;;;;;;;;;357126;148;857396;-61
2021/08/24 04:10:16;;;;;;;10.27;5.63;;;;;;;;;;358416;148;857346;-58
2021/08/24 04:11:18;;;;;;;7.91;5.41;;;;;;;;;;359120;150;862411;-60
2021/08/24 04:12:19;;;;;;;9.98;5.51;;;;;;;;;;357287;148;864931;-59
2021/08/24 04:13:21;;;;;;;10.77;5.74;;;;;;;;;;359308;148;857399;-61
2021/08/24 04:14:23;;;;;;;9.60;5.63;;;;;;;;;;358989;148;857372;-60
2021/08/24 04:15:24;;;;;;;12.95;5.91;;;;;;;;;;359243;148;866420;-61
2021/08/24 04:16:26;;;;;;;14.73;5.83;;;;;;;;;;358191;148;858997;-60
2021/08/24 04:17:28;;;;;;;10.05;5.23;;;;;;;;;;357371;149;857177;-60
2021/08/24 04:18:29;;;;;;;10.43;5.09;;;;;;;;;;358171;148;858888;-60
2021/08/24 04:19:31;;;;;;;10.11;5.74;;;;;;;;;;357695;150;858111;-61
2021/08/24 04:20:32;;;;;;;8.58;5.19;;;;;;;;;;357278;148;859333;-61
2021/08/24 04:21:36;;;;;;;11.60;5.48;;;;;;;;;;358282;150;866029;-59
2021/08/24 04:22:38;;;;;;;10.87;6.19;;;;;;;;;;356829;150;857213;-60
2021/08/24 04:23:40;;;;;;;7.52;5.25;;;;;;;;;;357934;148;857367;-59
2021/08/24 04:24:42;;;;;;;8.98;5.88;;;;;;;;;;357649;149;857831;-60
2021/08/24 04:25:43;;;;;;;10.71;6.11;;;;;;;;;;358299;150;859001;-59
2021/08/24 04:26:45;;;;;;;7.31;5.51;;;;;;;;;;358375;147;857240;-59
2021/08/24 04:27:47;;;;;;;11.99;6.05;;;;;;;;;;357696;149;864775;-60
2021/08/24 04:28:48;;;;;;;8.14;5.78;;;;;;;;;;356160;147;857292;-59
2021/08/24 04:29:50;;;;;;;8.53;6.45;;;;;;;;;;358463;148;857387;-59
2021/08/24 04:30:52;;;;;;;11.06;5.37;;;;;;;;;;357797;148;857153;-60
2021/08/24 04:31:54;;;;;;;11.49;6.23;;;;;;;;;;358850;150;857241;-60
2021/08/24 04:32:55;;;;;;;10.10;5.87;;;;;;;;;;357092;150;857281;-59
2021/08/24 04:33:57;;;;;;;9.86;5.69;;;;;;;;;;358200;148;859027;-58
2021/08/24 04:34:59;;;;;;;11.40;6.25;;;;;;;;;;358790;148;857324;-57
2021/08/24 04:36:00;;;;;;;11.36;6.40;;;;;;;;;;359209;150;858118;-59
2021/08/24 04:37:02;;;;;;;14.37;6.59;;;;;;;;;;357765;149;858867;-57
2021/08/24 04:38:04;;;;;;;20.56;6.69;;;;;;;;;;359626;147;864896;-60
2021/08/24 04:39:05;;;;;;;14.24;6.61;;;;;;;;;;358988;150;865521;-59
2021/08/24 04:40:08;;;;;;;11.76;6.69;;;;;;;;;;357398;148;858047;-58
2021/08/24 04:41:09;;;;;;;12.77;7.04;;;;;;;;;;359864;147;865038;-58
2021/08/24 04:42:12;;;;;;;13.51;6.72;;;;;;;;;;359674;148;858640;-60
2021/08/24 04:43:14;;;;;;;15.32;7.36;;;;;;;;;;358264;149;857523;-58
2021/08/24 04:44:15;;;;;;;17.07;6.91;;;;;;;;;;357835;148;857249;-59
2021/08/24 04:45:18;;;;;;;10.06;7.09;;;;;;;;;;356457;148;865723;-59
2021/08/24 04:46:21;;;;;;;12.62;6.69;;;;;;;;;;357912;149;857364;-59
2021/08/24 04:47:23;;;;;;;16.36;7.07;;;;;;;;;;357211;148;857840;-59
2021/08/24 04:48:24;;;;;;;12.82;7.44;;;;;;;;;;357649;147;857423;-59
2021/08/24 04:49:26;;;;;;;14.23;6.65;;;;;;;;;;358752;149;857196;-58
2021/08/24 04:50:28;;;;;;;10.62;6.73;;;;;;;;;;359225;147;857320;-57
2021/08/24 04:51:30;;;;;;;13.46;7.24;;;;;;;;;;357247;148;857300;-59
2021/08/24 04:52:31;;;;;;;13.95;7.48;;;;;;;;;;356525;147;858254;-59
2021/08/24 04:53:33;;;;;;;12.01;7.19;;;;;;;;;;359208;149;865768;-58
2021/08/24 04:54:34;;;;;;;10.35;6.65;;;;;;;;;;360467;147;858695;-59
2021/08/24 04:55:36;;;;;;;14.65;7.24;;;;;;;;;;359119;147;857909;-59
2021/08/24 04:56:38;;;;;;;11.15;6.95;;;;;;;;;;359683;149;857409;-59
2021/08/24 04:57:40;;;;;;;19.41;7.59;;;;;;;;;;358349;148;857224;-58
2021/08/24 04:58:41;;;;;;;12.42;6.64;;;;;;;;;;358359;147;864984;-57
2021/08/24 04:59:43;;;;;;;15.44;6.87;;;;;;;;;;358967;149;857226;-58
2021/08/24 05:00:45;;;;;;;13.65;7.34;;;;;;;;;;359833;148;857185;-58
2021/08/24 05:01:47;;;;;;;11.79;7.32;;;;;;;-147.14;100.00;-15512.04;359096;149;857327;-59
2021/08/24 05:02:48;;;;;;;14.86;6.05;;;;;;;;;;357928;147;865029;-58
2021/08/24 05:03:50;;;;;;;11.43;6.29;;;;;;;;;;358307;149;865033;-58
2021/08/24 05:04:51;;;;;;;14.34;6.36;;;;;;;;;;358833;150;857288;-59
2021/08/24 05:05:53;;;;;;;16.17;6.47;;;;;;;;;;358289;147;859345;-59
2021/08/24 05:06:55;;;;;;;11.38;7.07;;;;;;;;;;358705;149;857307;-58
2021/08/24 05:07:56;;;;;;;11.91;7.01;;;;;;;;;;359588;149;858055;-58
2021/08/24 05:08:58;;;;;;;14.25;7.05;;;;;;;;;;357861;148;857435;-59
2021/08/24 05:10:01;;;;;;;15.82;7.50;;;;;;;;;;359112;147;859407;-58
2021/08/24 05:11:03;;;;;;;12.10;7.07;;;;;;;;;;356632;149;859773;-57
2021/08/24 05:12:05;;;;;;;12.03;7.17;;;;;;;;;;358953;148;857131;-58
2021/08/24 05:13:06;;;;;;;17.05;7.25;;;;;;;;;;359849;147;858155;-57
2021/08/24 05:14:08;;;;;;;15.49;7.66;;;;;;;;;;357344;149;859967;-59
2021/08/24 05:15:09;;;;;;;16.16;7.27;;;;;;;;;;359199;149;857275;-59
2021/08/24 05:16:12;;;;;;;15.74;7.42;;;;;;;;;;357145;148;857277;-58
2021/08/24 05:17:14;;;;;;;15.99;7.37;;;;;;;;;;358589;147;857354;-59
2021/08/24 05:18:16;;;;;;;13.76;8.18;;;;;;;;;;358905;148;857380;-57
2021/08/24 05:19:17;;;;;;;13.04;7.33;;;;;;;;;;351517;151;857862;-58
2021/08/24 05:20:20;;;;;;;12.03;7.70;;;;;;;;;;352165;149;859315;-59
2021/08/24 05:21:22;;;;;;;18.62;8.05;;;;;;;;;;360466;149;860765;-58
2021/08/24 05:22:23;;;;;;;13.17;7.79;;;;;;;;;;358163;150;864921;-58
2021/08/24 05:23:25;;;;;;;17.24;7.94;;;;;;;;;;359078;147;857232;-58
2021/08/24 05:24:26;;;;;;;13.44;7.77;;;;;;;;;;359743;148;865880;-59
2021/08/24 05:25:28;;;;;;;16.45;8.60;;;;;;;;;;359504;149;857225;-59
2021/08/24 05:26:31;;;;;;;13.07;7.89;;;;;;;;;;358609;149;857065;-59
2021/08/24 05:27:33;;;;;;;13.76;7.11;;;;;;;;;;359270;147;858136;-59
2021/08/24 05:28:35;;;;;;;13.82;7.80;;;;;;;;;;360147;149;864937;-58
2021/08/24 05:29:36;;;;;;;14.16;8.09;;;;;;;;;;359055;148;857772;-58
2021/08/24 05:30:40;;;;;;;16.33;8.68;;;;;;;;;;358614;147;857305;-59
2021/08/24 05:31:41;;;;;;;13.07;8.39;;;;;;;;;;360106;147;858336;-59
2021/08/24 05:32:43;;;;;;;11.41;7.35;;;;;;;;;;358072;148;857945;-60
2021/08/24 05:33:44;;;;;;;10.89;7.46;;;;;;;;;;359308;148;857195;-56
2021/08/24 05:34:46;;;;;;;12.59;7.48;;;;;;;;;;358142;147;859500;-58
2021/08/24 05:35:48;;;;;;;11.16;7.84;;;;;;;;;;357681;149;858888;-59
2021/08/24 05:36:50;;;;;;;12.57;7.13;;;;;;;;;;357985;148;858652;-56
2021/08/24 05:37:52;;;;;;;14.06;7.36;;;;;;;;;;359052;147;857224;-57
2021/08/24 05:38:53;;;;;;;13.29;7.22;;;;;;;;;;359101;148;857153;-58
2021/08/24 05:39:55;;;;;;;13.94;6.85;;;;;;;;;;357509;149;857174;-57
2021/08/24 05:40:58;;;;;;;12.84;7.29;;;;;;;;;;358483;148;857374;-58
2021/08/24 05:42:00;;;;;;;18.26;7.81;;;;;;;;;;358444;147;859087;-58
2021/08/24 05:43:02;;;;;;;13.03;7.47;;;;;;;;;;358741;148;857290;-59
2021/08/24 05:44:03;;;;;;;10.98;7.12;;;;;;;;;;358596;148;857215;-59
2021/08/24 05:45:06;;;;;;;11.96;6.93;;;;;;;;;;358903;148;859085;-59
2021/08/24 05:46:09;;;;;;;14.39;7.57;;;;;;;;;;357532;147;865541;-57
2021/08/24 05:47:11;;;;;;;11.48;7.57;;;;;;;;;;358569;149;857915;-59
2021/08/24 05:48:12;;;;;;;13.64;7.08;;;;;;;;;;356274;148;860172;-59
2021/08/24 05:49:14;;;;;;;12.26;7.19;;;;;;;;;;357514;147;865567;-59
2021/08/24 05:50:17;;;;;;;13.22;8.13;;;;;;;;;;358900;149;857423;-57
2021/08/24 05:51:19;;;;;;;13.59;8.74;;;;;;;;;;358959;148;857452;-58
2021/08/24 05:52:21;;;;;;;11.92;7.58;;;;;;;;;;358367;147;864424;-58
2021/08/24 05:53:22;;;;;;;11.83;7.81;;;;;;;;;;358338;149;857916;-58
2021/08/24 05:54:24;;;;;;;12.81;8.52;;;;;;;;;;350370;150;864988;-59
2021/08/24 05:55:25;;;;;;;17.97;8.29;;;;;;;;;;356725;148;856468;-59
2021/08/24 05:56:28;;;;;;;12.53;7.99;;;;;;;;;;358119;149;858887;-59
2021/08/24 05:57:30;;;;;;;13.98;7.26;;;;;;;;;;355025;150;858826;-59
2021/08/24 05:58:31;;;;;;;11.38;7.71;;;;;;;;;;357853;147;857319;-59
2021/08/24 05:59:33;;;;;;;15.84;7.92;;;;;;;;;;359862;147;858939;-60
2021/08/24 06:00:36;;;;;;;13.13;7.75;;;;;;;;;;354706;149;857187;-58
2021/08/24 06:01:37;;;;;;;14.93;7.81;;;;;;;;;;358685;149;858169;-59
2021/08/24 06:02:39;;;;;;;13.26;7.69;;;;;;;;;;358384;147;857354;-59
2021/08/24 06:03:41;;;;;;;12.77;7.74;;;;;;;;;;358887;148;866832;-60
2021/08/24 06:04:42;;;;;;;15.44;8.22;;;;;;;;;;356258;149;859019;-60
2021/08/24 06:05:44;;;;;;;18.48;8.09;;;;;;;;;;358518;147;859726;-62
2021/08/24 06:06:45;;;;;;;15.41;7.96;;;;;;;;;;358879;147;858346;-61
2021/08/24 06:07:47;;;;;;;11.82;7.27;;;;;;;;;;359153;147;865086;-60
2021/08/24 06:08:49;;;;;;;17.36;7.90;;;;;;;;;;358057;149;857382;-61
2021/08/24 06:09:50;;;;;;;13.84;7.64;;;;;;;;;;360138;148;857233;-60
2021/08/24 06:10:54;;;;;;;16.59;7.89;;;;;;;;;;355967;149;858854;-58
2021/08/24 06:11:56;;;;;;;13.61;7.64;;;;;;;;;;359345;147;864873;-57
2021/08/24 06:12:57;;;;;;;14.74;8.16;;;;;;;;;;357606;147;866738;-58
2021/08/24 06:14:00;;;;;;;14.19;7.75;;;;;;;;;;359603;149;857227;-55
2021/08/24 06:15:02;;;;;;;13.57;7.40;;;;;;;;;;358475;149;858993;-56
2021/08/24 06:16:05;;;;;;;15.81;7.24;;;;;;;;;;358057;147;865757;-58
2021/08/24 06:17:07;;;;;;;11.89;7.18;;;;;;;;;;357735;149;864957;-58
2021/08/24 06:18:08;;;;;;;17.40;7.69;;;;;;;;;;357865;149;859939;-59
2021/08/24 06:19:10;;;;;;;14.75;7.15;;;;;;;;;;356000;147;857857;-57
2021/08/24 06:20:12;;;;;;;11.61;7.14;;;;;;;;;;358465;148;857252;-58
2021/08/24 06:21:14;;;;;;;12.09;7.29;;;;;;;;;;358032;149;865122;-58
2021/08/24 06:22:16;;;;;;;11.35;6.52;;;;;;;;;;359031;148;857353;-59
2021/08/24 06:23:17;;;;;;;12.89;7.47;;;;;;;;;;357583;148;857480;-58
2021/08/24 06:24:19;;;;;;;11.50;7.34;;;;;;;;;;359169;147;859086;-59
2021/08/24 06:25:22;;;;;;;11.24;7.01;;;;;;;;;;358087;149;856487;-60
2021/08/24 06:26:26;;;;;;;11.76;6.61;;;;;;;;;;357297;148;859031;-59
2021/08/24 06:27:27;;;;;;;13.78;6.72;;;;;;;;;;357841;147;857171;-59
2021/08/24 06:28:29;;;;;;;15.35;6.97;;;;;;;;;;358766;148;857274;-58
2021/08/24 06:29:31;;;;;;;11.84;6.53;;;;;;;;;;357400;149;858655;-60
2021/08/24 06:30:33;;;;;;;11.97;6.53;;;;;;;;;;357654;147;858507;-58
2021/08/24 06:31:39;;;;;;;12.39;6.40;;;;;;;;;;359809;148;858933;-59
2021/08/24 06:32:44;;;;;;;12.79;6.56;;;;;;;;;;357962;147;857816;-59
2021/08/24 06:33:46;;;;;;;13.57;6.71;;;;;;;;;;356937;147;856865;-59
2021/08/24 06:34:47;;;;;;;11.01;6.69;;;;;;;;;;360462;147;860770;-59
2021/08/24 06:35:49;;;;;;;12.31;6.20;;;;;;;;;;358756;148;864452;-60
2021/08/24 06:36:52;;;;;;;9.18;5.65;;;;;;;;;;360210;147;859071;-59
2021/08/24 06:37:53;;;;;;;17.37;5.82;;;;;;;;;;359756;147;858322;-59
2021/08/24 06:38:55;;;;;;;14.12;6.41;;;;;;;;;;359308;148;858085;-58
2021/08/24 06:39:57;;;;;;;13.39;5.23;;;;;;;;;;358519;148;858829;-59
2021/08/24 06:40:59;;;;;;;9.84;5.35;;;;;;;;;;359586;147;858992;-59
2021/08/24 06:42:01;;;;;;;13.17;6.57;;;;;;;;;;357615;148;859167;-59
2021/08/24 06:43:03;;;;;;;13.78;6.71;;;;;;;;;;353775;149;859537;-59
2021/08/24 06:44:05;;;;;;;11.19;6.10;;;;;;;;;;359364;148;857413;-59
2021/08/24 06:45:07;;;;;;;8.53;5.79;;;;;;;;;;357742;148;857248;-59
2021/08/24 06:46:09;;;;;;;13.97;5.74;;;;;;;;;;352776;149;856355;-59
2021/08/24 06:47:11;;;;;;;11.71;6.09;;;;;;;;;;352730;150;863769;-59
2021/08/24 06:48:12;;;;;;;10.48;5.91;;;;;;;;;;353740;150;857217;-60
2021/08/24 06:49:14;;;;;;;9.23;4.99;;;;;;;;;;353516;151;856507;-60
2021/08/24 06:50:16;;;;;;;9.40;5.07;;;;;;;;;;354165;151;856490;-59
2021/08/24 06:51:18;;;;;;;9.88;5.91;;;;;;;;;;352619;151;864095;-59
2021/08/24 06:52:19;;;;;;;11.86;6.36;;;;;;;;;;351555;150;864013;-59
2021/08/24 06:53:21;;;;;;;9.94;6.19;;;;;;;;;;353960;151;856456;-59
2021/08/24 06:54:22;;;;;;;8.04;5.66;;;;;;;;;;353214;149;856686;-59
2021/08/24 06:55:25;;;;;;;8.67;4.86;;;;;;;;;;352346;149;856714;-59
2021/08/24 06:56:28;;;;;;;13.91;5.88;;;;;;;;;;353005;150;856474;-60
2021/08/24 06:57:29;;;;;;;12.57;5.65;;;;;;;;;;354850;151;856210;-59
2021/08/24 06:58:31;;;;;;;11.61;6.16;;;;;;;;;;352686;149;863777;-60
2021/08/24 06:59:37;;;;;;;10.82;5.81;;;;;;;;;;354425;150;856362;-60
2021/08/24 07:00:40;;;;;;;9.96;5.87;;;;;;;;;;352386;152;856280;-59
2021/08/24 07:01:42;;;;;;;11.55;5.89;;;;;;;;;;351766;151;856833;-60
2021/08/24 07:02:43;;;;;;;8.24;5.05;;;;;;;;;;352173;149;856329;-59
2021/08/24 07:03:45;;;;;;;12.54;5.90;;;;;;;;;;352288;150;856401;-59
2021/08/24 07:04:48;;;;;;;9.54;4.82;;;;;;;;;;349009;151;865832;-59
2021/08/24 07:05:50;;;;;;;8.86;5.12;;;;;;;;;;352376;150;856647;-60
2021/08/24 07:06:52;;;;;;;8.68;5.35;;;;;;;;;;352399;151;856378;-60
2021/08/24 07:07:53;;;;;;;13.66;5.48;;;;;;;;;;351542;151;858646;-58
2021/08/24 07:08:56;;;;;;;12.10;5.48;;;;;;;;;;353274;150;858581;-59
2021/08/24 07:09:58;;;;;;;9.32;5.55;;;;;;;;;;352750;150;859392;-60
2021/08/24 07:10:59;;;;;;;11.54;5.67;;;;;;;;;;351472;151;864953;-61
2021/08/24 07:12:01;;;;;;;10.16;5.11;;;;;;;;;;349078;151;864991;-62
2021/08/24 07:13:03;;;;;;;6.65;4.85;;;;;;;;;;352187;149;856788;-61
2021/08/24 07:14:05;;;;;;;8.71;4.88;;;;;;;;;;351023;151;863606;-60
2021/08/24 07:15:07;;;;;;;10.24;5.00;;;;;;;;;;351902;150;856360;-60
2021/08/24 07:16:09;;;;;;;9.55;5.26;;;;;;;;;;353104;150;859551;-60
2021/08/24 07:17:10;;;;;;;9.89;4.94;;;;;;;;;;351490;151;858342;-59
2021/08/24 07:18:12;;;;;;;10.24;4.99;;;;;;;;;;354077;149;865811;-60
2021/08/24 07:19:13;;;;;;;10.23;4.42;;;;;;;;;;352797;150;860327;-61
2021/08/24 07:20:16;;;;;;;9.08;4.25;;;;;;;;;;352862;150;860368;-60
2021/08/24 07:21:17;;;;;;;7.25;4.40;;;;;;;;;;351920;150;857520;-60
2021/08/24 07:22:19;;;;;;;6.93;4.81;;;;;;;;;;349498;152;857432;-61
2021/08/24 07:23:20;;;;;;;9.77;3.99;;;;;;;;;;344347;152;857185;-62
2021/08/24 07:24:22;;;;;;;7.64;4.73;;;;;;;;;;340198;157;856578;-61
2021/08/24 07:25:25;;;;;;;12.16;5.11;;;;;;;;;;339111;156;856903;-60
2021/08/24 07:26:27;;;;;;;7.29;4.71;;;;;;;;;;345674;153;856347;-60
2021/08/24 07:27:29;;;;;;;9.08;4.44;;;;;;;;;;339404;155;863692;-60
2021/08/24 07:28:30;;;;;;;10.03;4.80;;;;;;;;;;345273;154;856251;-60
2021/08/24 07:29:32;;;;;;;8.59;4.54;;;;;;;;;;340398;156;856288;-61
2021/08/24 07:30:35;;;;;;;8.19;4.45;;;;;;;;;;346112;152;864184;-60
2021/08/24 07:31:37;;;;;;;10.69;4.62;;;;;;;;;;345350;154;856889;-60
2021/08/24 07:32:39;;;;;;;6.91;4.50;;;;;;;;;;344368;153;856992;-60
2021/08/24 07:33:40;;;;;;;8.05;4.56;;;;;;;;;;344941;155;863791;-60
2021/08/24 07:34:42;;;;;;;9.66;4.77;;;;;;;;;;345655;152;856940;-60
2021/08/24 07:35:46;;;;;;;8.39;4.71;;;;;;;;;;344920;154;856975;-60
2021/08/24 07:36:48;;;;;;;9.11;4.71;;;;;;;;;;344876;153;856419;-60
2021/08/24 07:37:49;;;;;;;8.42;4.76;;;;;;;;;;346710;152;856384;-60
2021/08/24 07:38:51;;;;;;;9.94;4.73;;;;;;;;;;344794;154;856953;-60
2021/08/24 07:39:52;;;;;;;7.26;4.99;;;;;;;;;;346003;154;856808;-60
2021/08/24 07:40:55;;;;;;;12.49;5.22;;;;;;;;;;345234;153;857275;-60
2021/08/24 07:41:56;;;;;;;9.64;4.82;;;;;;;;;;345402;153;856513;-61
2021/08/24 07:42:58;;;;;;;11.47;4.66;;;;;;;;;;346357;154;856953;-60
2021/08/24 07:43:59;;;;;;;11.11;5.52;;;;;;;;;;345151;152;856497;-60
2021/08/24 07:45:01;;;;;;;11.22;5.31;;;;;;;;;;338557;156;856601;-60
2021/08/24 07:46:02;;;;;;;7.77;4.78;;;;;;;;;;340174;153;856875;-61
2021/08/24 07:47:06;;;;;;;7.49;4.64;;;;;;;;;;358714;148;863652;-60
2021/08/24 07:48:08;;;;;;;10.01;4.81;;;;;;;;;;358916;148;856434;-60
2021/08/24 07:49:09;;;;;;;7.36;4.99;;;;;;;;;;357812;147;856255;-61
2021/08/24 07:50:11;;;;;;;9.74;4.48;;;;;;;;;;356569;149;856290;-61
2021/08/24 07:51:13;;;;;;;11.76;4.52;;;;;;;;;;358318;148;856553;-61
2021/08/24 07:52:14;;;;;;;6.86;3.94;;;;;;;;;;358648;147;856641;-61
2021/08/24 07:53:16;;;;;;;7.91;4.12;;;;;;;;;;361678;149;856421;-60
2021/08/24 07:54:20;;;;;;;6.49;4.14;;;;;;;;;;358980;149;856499;-60
2021/08/24 07:55:21;;;;;;;5.86;3.76;;;;;;;;;;359640;147;857120;-61
2021/08/24 07:56:23;;;;;;;8.99;4.09;;;;;;;;;;360019;147;856396;-60
2021/08/24 07:57:24;;;;;;;6.47;3.81;;;;;;;;;;358187;148;863599;-60
2021/08/24 07:58:26;;;;;;;6.24;3.94;;;;;;;;;;359164;148;863802;-60
2021/08/24 07:59:28;;;;;;;10.56;3.84;;;;;;;;;;358073;147;856343;-59
2021/08/24 08:00:31;;;;;;;7.59;3.82;;;;;;;;;;357820;148;856241;-60
2021/08/24 08:01:32;;;;;;;8.66;3.31;;;;;;;;;;356334;149;856447;-61
2021/08/24 08:02:34;;;;;;;6.41;3.85;;;;;;;;;;358396;149;856264;-60
2021/08/24 08:03:36;;;;;;;5.63;3.42;;;;;;;;;;358482;147;856400;-61
2021/08/24 08:04:37;;;;;;;9.41;3.79;;;;;;;;;;358855;148;856254;-61
2021/08/24 08:05:39;;;;;;;5.14;3.40;;;;;;;;;;359769;147;856444;-61
2021/08/24 08:06:41;;;;;;;9.82;3.11;;;;;;;;;;359576;147;856408;-62